sensor_id;sensor_type;location;lat;lon;timestamp;P1;durP1;ratioP1;P2;durP2;ratioP2
65202;SDS011;51788;45.124;38.966;2022-12-11T00:00:36;33.85;;;18.90;;
65202;SDS011;51788;45.124;38.966;2022-12-11T00:03:03;36.25;;;19.40;;
65202;SDS011;51788;45.124;38.966;2022-12-11T00:05:30;31.13;;;18.83;;
65202;SDS011;51788;45.124;38.966;2022-12-11T00:07:56;36.17;;;19.23;;
65202;SDS011;51788;45.124;38.966;2022-12-11T00:10:23;29.58;;;17.63;;
65202;SDS011;51788;45.124;38.966;2022-12-11T00:12:49;30.13;;;19.77;;
65202;SDS011;51788;45.124;38.966;2022-12-11T00:15:15;35.38;;;19.40;;
65202;SDS011;51788;45.124;38.966;2022-12-11T00:17:41;28.92;;;18.23;;
65202;SDS011;51788;45.124;38.966;2022-12-11T00:20:07;34.08;;;18.55;;
65202;SDS011;51788;45.124;38.966;2022-12-11T00:22:34;33.15;;;18.27;;
65202;SDS011;51788;45.124;38.966;2022-12-11T00:25:00;31.45;;;18.13;;
65202;SDS011;51788;45.124;38.966;2022-12-11T00:27:26;37.13;;;17.85;;
65202;SDS011;51788;45.124;38.966;2022-12-11T00:29:52;37.13;;;19.95;;
65202;SDS011;51788;45.124;38.966;2022-12-11T00:32:18;33.90;;;18.45;;
65202;SDS011;51788;45.124;38.966;2022-12-11T00:34:44;42.92;;;17.85;;
65202;SDS011;51788;45.124;38.966;2022-12-11T00:37:10;28.27;;;18.10;;
65202;SDS011;51788;45.124;38.966;2022-12-11T00:39:36;26.73;;;16.80;;
65202;SDS011;51788;45.124;38.966;2022-12-11T00:42:04;29.25;;;16.50;;
65202;SDS011;51788;45.124;38.966;2022-12-11T00:44:31;28.77;;;17.75;;
65202;SDS011;51788;45.124;38.966;2022-12-11T00:46:58;34.65;;;16.60;;
65202;SDS011;51788;45.124;38.966;2022-12-11T00:49:24;23.35;;;15.75;;
65202;SDS011;51788;45.124;38.966;2022-12-11T00:51:50;27.15;;;16.00;;
65202;SDS011;51788;45.124;38.966;2022-12-11T00:54:16;26.42;;;15.65;;
65202;SDS011;51788;45.124;38.966;2022-12-11T00:56:42;30.52;;;16.27;;
65202;SDS011;51788;45.124;38.966;2022-12-11T00:59:08;25.48;;;15.80;;
65202;SDS011;51788;45.124;38.966;2022-12-11T01:01:33;26.73;;;15.65;;
65202;SDS011;51788;45.124;38.966;2022-12-11T01:04:00;29.77;;;16.00;;
65202;SDS011;51788;45.124;38.966;2022-12-11T01:06:26;21.73;;;14.68;;
65202;SDS011;51788;45.124;38.966;2022-12-11T01:08:53;25.95;;;15.80;;
65202;SDS011;51788;45.124;38.966;2022-12-11T01:11:38;22.65;;;15.95;;
65202;SDS011;51788;45.124;38.966;2022-12-11T01:14:05;27.88;;;15.60;;
65202;SDS011;51788;45.124;38.966;2022-12-11T01:16:31;27.83;;;15.43;;
65202;SDS011;51788;45.124;38.966;2022-12-11T01:18:58;27.30;;;15.55;;
65202;SDS011;51788;45.124;38.966;2022-12-11T01:21:24;30.08;;;14.45;;
65202;SDS011;51788;45.124;38.966;2022-12-11T01:23:51;25.80;;;17.13;;
65202;SDS011;51788;45.124;38.966;2022-12-11T01:26:17;23.70;;;15.48;;
65202;SDS011;51788;45.124;38.966;2022-12-11T01:28:43;29.55;;;15.15;;
65202;SDS011;51788;45.124;38.966;2022-12-11T01:31:10;28.48;;;16.35;;
65202;SDS011;51788;45.124;38.966;2022-12-11T01:33:39;25.33;;;16.10;;
65202;SDS011;51788;45.124;38.966;2022-12-11T01:36:08;25.80;;;15.00;;
65202;SDS011;51788;45.124;38.966;2022-12-11T01:38:36;21.77;;;13.10;;
65202;SDS011;51788;45.124;38.966;2022-12-11T01:41:02;28.90;;;15.15;;
65202;SDS011;51788;45.124;38.966;2022-12-11T01:43:28;26.02;;;15.07;;
65202;SDS011;51788;45.124;38.966;2022-12-11T01:45:55;23.23;;;14.65;;
65202;SDS011;51788;45.124;38.966;2022-12-11T01:48:30;25.60;;;15.20;;
65202;SDS011;51788;45.124;38.966;2022-12-11T01:50:58;20.08;;;13.88;;
65202;SDS011;51788;45.124;38.966;2022-12-11T01:53:33;26.10;;;13.88;;
65202;SDS011;51788;45.124;38.966;2022-12-11T01:56:02;25.20;;;13.75;;
65202;SDS011;51788;45.124;38.966;2022-12-11T01:58:41;21.38;;;15.15;;
65202;SDS011;51788;45.124;38.966;2022-12-11T02:01:11;23.05;;;15.23;;
65202;SDS011;51788;45.124;38.966;2022-12-11T02:03:44;25.90;;;15.38;;
65202;SDS011;51788;45.124;38.966;2022-12-11T02:06:30;21.77;;;15.45;;
65202;SDS011;51788;45.124;38.966;2022-12-11T02:09:13;22.35;;;15.15;;
65202;SDS011;51788;45.124;38.966;2022-12-11T02:14:22;23.20;;;13.88;;
65202;SDS011;51788;45.124;38.966;2022-12-11T02:25:51;23.30;;;14.18;;
65202;SDS011;51788;45.124;38.966;2022-12-11T02:31:06;22.13;;;14.13;;
65202;SDS011;51788;45.124;38.966;2022-12-11T02:34:20;23.65;;;14.75;;
65202;SDS011;51788;45.124;38.966;2022-12-11T02:36:39;17.48;;;12.77;;
65202;SDS011;51788;45.124;38.966;2022-12-11T02:39:08;25.40;;;14.15;;
65202;SDS011;51788;45.124;38.966;2022-12-11T02:41:38;22.15;;;13.52;;
65202;SDS011;51788;45.124;38.966;2022-12-11T02:44:07;23.05;;;13.35;;
65202;SDS011;51788;45.124;38.966;2022-12-11T02:46:36;22.05;;;14.18;;
65202;SDS011;51788;45.124;38.966;2022-12-11T02:49:04;18.10;;;11.73;;
65202;SDS011;51788;45.124;38.966;2022-12-11T02:51:33;21.73;;;12.60;;
65202;SDS011;51788;45.124;38.966;2022-12-11T02:54:03;23.37;;;13.47;;
65202;SDS011;51788;45.124;38.966;2022-12-11T02:56:33;19.00;;;12.80;;
65202;SDS011;51788;45.124;38.966;2022-12-11T02:59:06;25.13;;;12.02;;
65202;SDS011;51788;45.124;38.966;2022-12-11T03:04:02;23.00;;;11.52;;
65202;SDS011;51788;45.124;38.966;2022-12-11T03:06:33;24.77;;;11.38;;
65202;SDS011;51788;45.124;38.966;2022-12-11T03:09:02;19.80;;;12.23;;
65202;SDS011;51788;45.124;38.966;2022-12-11T03:11:29;19.92;;;12.63;;
65202;SDS011;51788;45.124;38.966;2022-12-11T03:13:55;20.63;;;13.45;;
65202;SDS011;51788;45.124;38.966;2022-12-11T03:16:29;14.82;;;11.38;;
65202;SDS011;51788;45.124;38.966;2022-12-11T03:26:55;15.55;;;11.48;;
65202;SDS011;51788;45.124;38.966;2022-12-11T03:29:30;20.17;;;12.73;;
65202;SDS011;51788;45.124;38.966;2022-12-11T03:32:05;16.65;;;11.13;;
65202;SDS011;51788;45.124;38.966;2022-12-11T03:34:45;19.70;;;11.77;;
65202;SDS011;51788;45.124;38.966;2022-12-11T03:37:29;21.08;;;12.95;;
65202;SDS011;51788;45.124;38.966;2022-12-11T03:39:59;16.77;;;11.38;;
65202;SDS011;51788;45.124;38.966;2022-12-11T03:42:30;20.17;;;12.60;;
65202;SDS011;51788;45.124;38.966;2022-12-11T03:44:57;18.45;;;11.13;;
65202;SDS011;51788;45.124;38.966;2022-12-11T03:47:25;25.80;;;15.70;;
65202;SDS011;51788;45.124;38.966;2022-12-11T03:49:53;22.92;;;13.65;;
65202;SDS011;51788;45.124;38.966;2022-12-11T03:52:21;21.48;;;13.57;;
65202;SDS011;51788;45.124;38.966;2022-12-11T03:54:48;15.50;;;11.32;;
65202;SDS011;51788;45.124;38.966;2022-12-11T03:57:15;18.85;;;11.45;;
65202;SDS011;51788;45.124;38.966;2022-12-11T03:59:45;21.02;;;12.45;;
65202;SDS011;51788;45.124;38.966;2022-12-11T04:02:11;17.67;;;12.18;;
65202;SDS011;51788;45.124;38.966;2022-12-11T04:04:38;20.23;;;10.48;;
65202;SDS011;51788;45.124;38.966;2022-12-11T04:07:06;17.95;;;11.77;;
65202;SDS011;51788;45.124;38.966;2022-12-11T04:09:32;21.65;;;10.43;;
65202;SDS011;51788;45.124;38.966;2022-12-11T04:11:59;17.70;;;11.20;;
65202;SDS011;51788;45.124;38.966;2022-12-11T04:14:25;15.75;;;11.18;;
65202;SDS011;51788;45.124;38.966;2022-12-11T04:17:09;17.75;;;11.55;;
65202;SDS011;51788;45.124;38.966;2022-12-11T04:19:35;17.80;;;11.40;;
65202;SDS011;51788;45.124;38.966;2022-12-11T04:22:20;25.85;;;11.80;;
65202;SDS011;51788;45.124;38.966;2022-12-11T04:26:57;18.58;;;10.38;;
65202;SDS011;51788;45.124;38.966;2022-12-11T04:29:23;17.50;;;10.30;;
65202;SDS011;51788;45.124;38.966;2022-12-11T04:31:49;13.23;;;9.38;;
65202;SDS011;51788;45.124;38.966;2022-12-11T04:34:15;18.08;;;10.63;;
65202;SDS011;51788;45.124;38.966;2022-12-11T04:36:41;15.82;;;10.65;;
65202;SDS011;51788;45.124;38.966;2022-12-11T04:39:07;14.45;;;10.90;;
65202;SDS011;51788;45.124;38.966;2022-12-11T04:41:33;18.08;;;10.82;;
65202;SDS011;51788;45.124;38.966;2022-12-11T04:44:00;21.52;;;11.18;;
65202;SDS011;51788;45.124;38.966;2022-12-11T04:46:26;15.68;;;9.63;;
65202;SDS011;51788;45.124;38.966;2022-12-11T04:48:52;18.17;;;11.20;;
65202;SDS011;51788;45.124;38.966;2022-12-11T04:51:18;19.42;;;10.82;;
65202;SDS011;51788;45.124;38.966;2022-12-11T04:53:44;13.65;;;9.13;;
65202;SDS011;51788;45.124;38.966;2022-12-11T04:56:12;18.45;;;10.30;;
65202;SDS011;51788;45.124;38.966;2022-12-11T04:58:40;20.65;;;10.73;;
65202;SDS011;51788;45.124;38.966;2022-12-11T05:01:18;17.10;;;10.48;;
65202;SDS011;51788;45.124;38.966;2022-12-11T05:03:45;19.42;;;10.50;;
65202;SDS011;51788;45.124;38.966;2022-12-11T05:06:12;21.67;;;11.27;;
65202;SDS011;51788;45.124;38.966;2022-12-11T05:08:39;18.67;;;9.95;;
65202;SDS011;51788;45.124;38.966;2022-12-11T05:11:07;15.85;;;10.43;;
65202;SDS011;51788;45.124;38.966;2022-12-11T05:13:36;16.20;;;10.55;;
65202;SDS011;51788;45.124;38.966;2022-12-11T05:16:03;17.55;;;11.05;;
65202;SDS011;51788;45.124;38.966;2022-12-11T05:18:30;13.77;;;9.75;;
65202;SDS011;51788;45.124;38.966;2022-12-11T05:20:56;21.60;;;11.40;;
65202;SDS011;51788;45.124;38.966;2022-12-11T05:23:24;13.73;;;10.68;;
65202;SDS011;51788;45.124;38.966;2022-12-11T05:26:01;17.70;;;10.27;;
65202;SDS011;51788;45.124;38.966;2022-12-11T05:28:33;16.67;;;9.98;;
65202;SDS011;51788;45.124;38.966;2022-12-11T05:31:01;13.43;;;10.05;;
65202;SDS011;51788;45.124;38.966;2022-12-11T05:33:30;22.35;;;11.70;;
65202;SDS011;51788;45.124;38.966;2022-12-11T05:35:56;19.33;;;12.02;;
65202;SDS011;51788;45.124;38.966;2022-12-11T05:38:23;19.48;;;11.25;;
65202;SDS011;51788;45.124;38.966;2022-12-11T05:40:59;14.55;;;11.63;;
65202;SDS011;51788;45.124;38.966;2022-12-11T05:43:27;12.60;;;9.43;;
65202;SDS011;51788;45.124;38.966;2022-12-11T05:45:55;21.33;;;11.25;;
65202;SDS011;51788;45.124;38.966;2022-12-11T05:48:28;17.77;;;12.43;;
65202;SDS011;51788;45.124;38.966;2022-12-11T05:50:55;20.30;;;10.23;;
65202;SDS011;51788;45.124;38.966;2022-12-11T05:53:22;18.83;;;10.95;;
65202;SDS011;51788;45.124;38.966;2022-12-11T05:55:48;14.98;;;11.32;;
65202;SDS011;51788;45.124;38.966;2022-12-11T05:58:14;17.25;;;11.35;;
65202;SDS011;51788;45.124;38.966;2022-12-11T06:00:40;19.20;;;11.35;;
65202;SDS011;51788;45.124;38.966;2022-12-11T06:03:06;27.63;;;10.45;;
65202;SDS011;51788;45.124;38.966;2022-12-11T06:05:39;24.70;;;12.35;;
65202;SDS011;51788;45.124;38.966;2022-12-11T06:08:06;21.40;;;11.57;;
65202;SDS011;51788;45.124;38.966;2022-12-11T06:10:32;20.98;;;11.95;;
65202;SDS011;51788;45.124;38.966;2022-12-11T06:12:58;25.08;;;13.90;;
65202;SDS011;51788;45.124;38.966;2022-12-11T06:15:24;20.00;;;12.75;;
65202;SDS011;51788;45.124;38.966;2022-12-11T06:17:51;20.98;;;12.05;;
65202;SDS011;51788;45.124;38.966;2022-12-11T06:20:17;19.73;;;12.35;;
65202;SDS011;51788;45.124;38.966;2022-12-11T06:22:43;31.33;;;12.30;;
65202;SDS011;51788;45.124;38.966;2022-12-11T06:25:09;17.67;;;10.77;;
65202;SDS011;51788;45.124;38.966;2022-12-11T06:27:35;25.65;;;11.77;;
65202;SDS011;51788;45.124;38.966;2022-12-11T06:30:01;29.63;;;13.10;;
65202;SDS011;51788;45.124;38.966;2022-12-11T06:32:27;25.60;;;12.18;;
65202;SDS011;51788;45.124;38.966;2022-12-11T06:34:53;20.88;;;10.82;;
65202;SDS011;51788;45.124;38.966;2022-12-11T06:37:19;24.33;;;11.68;;
65202;SDS011;51788;45.124;38.966;2022-12-11T06:39:45;18.75;;;13.20;;
65202;SDS011;51788;45.124;38.966;2022-12-11T06:42:11;23.15;;;13.15;;
65202;SDS011;51788;45.124;38.966;2022-12-11T06:44:38;28.30;;;13.38;;
65202;SDS011;51788;45.124;38.966;2022-12-11T06:47:03;20.42;;;12.55;;
65202;SDS011;51788;45.124;38.966;2022-12-11T06:49:29;16.65;;;13.50;;
65202;SDS011;51788;45.124;38.966;2022-12-11T06:51:55;19.05;;;11.45;;
65202;SDS011;51788;45.124;38.966;2022-12-11T06:54:24;15.70;;;10.88;;
65202;SDS011;51788;45.124;38.966;2022-12-11T06:56:51;19.02;;;12.35;;
65202;SDS011;51788;45.124;38.966;2022-12-11T06:59:17;27.05;;;10.60;;
65202;SDS011;51788;45.124;38.966;2022-12-11T07:01:43;33.63;;;13.02;;
65202;SDS011;51788;45.124;38.966;2022-12-11T07:04:10;31.45;;;19.02;;
65202;SDS011;51788;45.124;38.966;2022-12-11T07:06:36;34.92;;;21.65;;
65202;SDS011;51788;45.124;38.966;2022-12-11T07:09:02;38.58;;;17.77;;
65202;SDS011;51788;45.124;38.966;2022-12-11T07:11:30;44.97;;;19.15;;
65202;SDS011;51788;45.124;38.966;2022-12-11T07:13:59;59.58;;;20.15;;
65202;SDS011;51788;45.124;38.966;2022-12-11T07:16:25;53.92;;;18.70;;
65202;SDS011;51788;45.124;38.966;2022-12-11T07:18:51;46.60;;;18.00;;
65202;SDS011;51788;45.124;38.966;2022-12-11T07:21:18;43.80;;;15.60;;
65202;SDS011;51788;45.124;38.966;2022-12-11T07:23:45;37.90;;;15.18;;
65202;SDS011;51788;45.124;38.966;2022-12-11T07:26:13;35.40;;;15.00;;
65202;SDS011;51788;45.124;38.966;2022-12-11T07:28:41;30.13;;;15.45;;
65202;SDS011;51788;45.124;38.966;2022-12-11T07:31:09;35.38;;;14.05;;
65202;SDS011;51788;45.124;38.966;2022-12-11T07:33:37;38.45;;;17.20;;
65202;SDS011;51788;45.124;38.966;2022-12-11T07:36:04;33.53;;;14.13;;
65202;SDS011;51788;45.124;38.966;2022-12-11T07:38:31;46.03;;;13.95;;
65202;SDS011;51788;45.124;38.966;2022-12-11T07:41:01;24.95;;;12.65;;
65202;SDS011;51788;45.124;38.966;2022-12-11T07:43:29;33.38;;;14.02;;
65202;SDS011;51788;45.124;38.966;2022-12-11T07:46:16;41.08;;;16.98;;
65202;SDS011;51788;45.124;38.966;2022-12-11T07:48:44;37.13;;;15.23;;
65202;SDS011;51788;45.124;38.966;2022-12-11T07:53:46;43.58;;;16.23;;
65202;SDS011;51788;45.124;38.966;2022-12-11T07:56:13;32.08;;;14.68;;
65202;SDS011;51788;45.124;38.966;2022-12-11T07:58:40;28.80;;;15.00;;
65202;SDS011;51788;45.124;38.966;2022-12-11T08:01:12;30.25;;;13.50;;
65202;SDS011;51788;45.124;38.966;2022-12-11T08:03:46;23.63;;;13.05;;
65202;SDS011;51788;45.124;38.966;2022-12-11T08:06:12;30.90;;;13.55;;
65202;SDS011;51788;45.124;38.966;2022-12-11T08:08:39;28.92;;;13.20;;
65202;SDS011;51788;45.124;38.966;2022-12-11T08:11:07;21.42;;;12.25;;
65202;SDS011;51788;45.124;38.966;2022-12-11T08:13:35;25.75;;;14.32;;
65202;SDS011;51788;45.124;38.966;2022-12-11T08:16:04;29.77;;;12.32;;
65202;SDS011;51788;45.124;38.966;2022-12-11T08:18:32;23.27;;;13.15;;
65202;SDS011;51788;45.124;38.966;2022-12-11T08:21:04;21.45;;;12.63;;
65202;SDS011;51788;45.124;38.966;2022-12-11T08:23:33;34.50;;;14.32;;
65202;SDS011;51788;45.124;38.966;2022-12-11T08:26:03;34.55;;;14.80;;
65202;SDS011;51788;45.124;38.966;2022-12-11T08:28:31;33.43;;;15.70;;
65202;SDS011;51788;45.124;38.966;2022-12-11T08:30:58;59.55;;;15.55;;
65202;SDS011;51788;45.124;38.966;2022-12-11T08:33:24;32.60;;;13.00;;
65202;SDS011;51788;45.124;38.966;2022-12-11T08:35:51;24.27;;;13.43;;
65202;SDS011;51788;45.124;38.966;2022-12-11T08:38:17;26.05;;;15.13;;
65202;SDS011;51788;45.124;38.966;2022-12-11T08:40:44;31.50;;;12.57;;
65202;SDS011;51788;45.124;38.966;2022-12-11T08:43:10;25.92;;;12.18;;
65202;SDS011;51788;45.124;38.966;2022-12-11T08:45:36;26.00;;;13.68;;
65202;SDS011;51788;45.124;38.966;2022-12-11T08:48:03;20.13;;;12.52;;
65202;SDS011;51788;45.124;38.966;2022-12-11T08:50:29;23.77;;;12.85;;
65202;SDS011;51788;45.124;38.966;2022-12-11T08:52:55;29.95;;;14.48;;
65202;SDS011;51788;45.124;38.966;2022-12-11T08:55:21;32.53;;;14.25;;
65202;SDS011;51788;45.124;38.966;2022-12-11T08:57:46;28.00;;;14.48;;
65202;SDS011;51788;45.124;38.966;2022-12-11T09:00:13;31.30;;;14.95;;
65202;SDS011;51788;45.124;38.966;2022-12-11T09:02:39;35.80;;;12.65;;
65202;SDS011;51788;45.124;38.966;2022-12-11T09:05:06;27.80;;;14.40;;
65202;SDS011;51788;45.124;38.966;2022-12-11T09:07:33;36.80;;;12.27;;
65202;SDS011;51788;45.124;38.966;2022-12-11T09:10:01;37.42;;;14.35;;
65202;SDS011;51788;45.124;38.966;2022-12-11T09:12:28;35.72;;;12.95;;
65202;SDS011;51788;45.124;38.966;2022-12-11T09:14:53;29.88;;;13.70;;
65202;SDS011;51788;45.124;38.966;2022-12-11T09:17:19;23.15;;;11.50;;
65202;SDS011;51788;45.124;38.966;2022-12-11T09:19:45;17.73;;;10.95;;
65202;SDS011;51788;45.124;38.966;2022-12-11T09:22:11;27.85;;;14.10;;
65202;SDS011;51788;45.124;38.966;2022-12-11T09:24:38;38.47;;;15.15;;
65202;SDS011;51788;45.124;38.966;2022-12-11T09:27:04;48.15;;;15.77;;
65202;SDS011;51788;45.124;38.966;2022-12-11T09:29:30;41.60;;;17.48;;
65202;SDS011;51788;45.124;38.966;2022-12-11T09:31:56;34.55;;;14.70;;
65202;SDS011;51788;45.124;38.966;2022-12-11T09:34:23;45.17;;;15.32;;
65202;SDS011;51788;45.124;38.966;2022-12-11T09:36:49;30.50;;;15.52;;
65202;SDS011;51788;45.124;38.966;2022-12-11T09:39:15;26.60;;;14.32;;
65202;SDS011;51788;45.124;38.966;2022-12-11T09:41:48;31.13;;;14.43;;
65202;SDS011;51788;45.124;38.966;2022-12-11T09:46:51;26.42;;;13.25;;
65202;SDS011;51788;45.124;38.966;2022-12-11T09:49:34;17.80;;;12.60;;
65202;SDS011;51788;45.124;38.966;2022-12-11T09:52:14;29.35;;;12.70;;
65202;SDS011;51788;45.124;38.966;2022-12-11T09:54:58;27.08;;;13.23;;
65202;SDS011;51788;45.124;38.966;2022-12-11T10:00:11;32.03;;;13.48;;
65202;SDS011;51788;45.124;38.966;2022-12-11T10:05:49;24.08;;;12.52;;
65202;SDS011;51788;45.124;38.966;2022-12-11T10:11:36;24.77;;;14.27;;
65202;SDS011;51788;45.124;38.966;2022-12-11T10:16:59;34.10;;;14.50;;
65202;SDS011;51788;45.124;38.966;2022-12-11T10:19:30;42.00;;;16.30;;
65202;SDS011;51788;45.124;38.966;2022-12-11T10:21:57;36.25;;;17.73;;
65202;SDS011;51788;45.124;38.966;2022-12-11T10:26:57;30.75;;;16.48;;
65202;SDS011;51788;45.124;38.966;2022-12-11T10:29:26;35.47;;;15.48;;
65202;SDS011;51788;45.124;38.966;2022-12-11T10:31:56;25.67;;;14.52;;
65202;SDS011;51788;45.124;38.966;2022-12-11T10:34:33;30.20;;;15.57;;
65202;SDS011;51788;45.124;38.966;2022-12-11T10:37:07;27.60;;;14.80;;
65202;SDS011;51788;45.124;38.966;2022-12-11T10:39:33;38.33;;;18.10;;
65202;SDS011;51788;45.124;38.966;2022-12-11T10:41:59;30.10;;;16.33;;
65202;SDS011;51788;45.124;38.966;2022-12-11T10:44:28;25.13;;;14.57;;
65202;SDS011;51788;45.124;38.966;2022-12-11T10:47:14;21.60;;;14.40;;
65202;SDS011;51788;45.124;38.966;2022-12-11T10:49:50;31.05;;;18.02;;
65202;SDS011;51788;45.124;38.966;2022-12-11T10:52:23;48.15;;;21.15;;
65202;SDS011;51788;45.124;38.966;2022-12-11T10:57:31;40.70;;;19.75;;
65202;SDS011;51788;45.124;38.966;2022-12-11T11:00:02;23.08;;;15.32;;
65202;SDS011;51788;45.124;38.966;2022-12-11T11:02:32;40.33;;;15.85;;
65202;SDS011;51788;45.124;38.966;2022-12-11T11:05:10;30.55;;;15.77;;
65202;SDS011;51788;45.124;38.966;2022-12-11T11:07:41;30.95;;;14.43;;
65202;SDS011;51788;45.124;38.966;2022-12-11T11:12:37;39.85;;;20.10;;
65202;SDS011;51788;45.124;38.966;2022-12-11T11:18:02;62.83;;;29.77;;
65202;SDS011;51788;45.124;38.966;2022-12-11T11:20:33;41.17;;;22.40;;
65202;SDS011;51788;45.124;38.966;2022-12-11T11:23:00;46.58;;;20.42;;
65202;SDS011;51788;45.124;38.966;2022-12-11T11:25:35;44.47;;;21.48;;
65202;SDS011;51788;45.124;38.966;2022-12-11T11:28:03;38.50;;;20.02;;
65202;SDS011;51788;45.124;38.966;2022-12-11T11:30:34;75.53;;;33.28;;
65202;SDS011;51788;45.124;38.966;2022-12-11T11:35:49;48.58;;;21.42;;
65202;SDS011;51788;45.124;38.966;2022-12-11T11:38:33;38.60;;;16.38;;
65202;SDS011;51788;45.124;38.966;2022-12-11T11:41:11;34.10;;;16.30;;
65202;SDS011;51788;45.124;38.966;2022-12-11T11:44:10;29.45;;;16.25;;
65202;SDS011;51788;45.124;38.966;2022-12-11T12:00:41;24.33;;;14.25;;
65202;SDS011;51788;45.124;38.966;2022-12-11T12:03:17;50.13;;;27.33;;
65202;SDS011;51788;45.124;38.966;2022-12-11T12:05:56;59.67;;;36.58;;
65202;SDS011;51788;45.124;38.966;2022-12-11T12:08:37;32.63;;;22.83;;
65202;SDS011;51788;45.124;38.966;2022-12-11T12:16:15;45.53;;;17.83;;
65202;SDS011;51788;45.124;38.966;2022-12-11T12:21:37;34.45;;;16.15;;
65202;SDS011;51788;45.124;38.966;2022-12-11T12:24:14;33.55;;;17.42;;
65202;SDS011;51788;45.124;38.966;2022-12-11T12:48:23;201.15;;;104.22;;
65202;SDS011;51788;45.124;38.966;2022-12-11T12:50:51;204.93;;;97.85;;
65202;SDS011;51788;45.124;38.966;2022-12-11T12:53:23;176.18;;;90.00;;
65202;SDS011;51788;45.124;38.966;2022-12-11T12:55:56;177.23;;;94.97;;
65202;SDS011;51788;45.124;38.966;2022-12-11T12:58:39;177.48;;;88.72;;
65202;SDS011;51788;45.124;38.966;2022-12-11T13:03:54;139.60;;;75.05;;
65202;SDS011;51788;45.124;38.966;2022-12-11T13:06:47;147.40;;;72.95;;
65202;SDS011;51788;45.124;38.966;2022-12-11T13:09:21;137.07;;;70.50;;
65202;SDS011;51788;45.124;38.966;2022-12-11T13:11:49;124.85;;;66.60;;
65202;SDS011;51788;45.124;38.966;2022-12-11T13:16:46;131.30;;;71.22;;
65202;SDS011;51788;45.124;38.966;2022-12-11T13:21:55;139.75;;;69.35;;
65202;SDS011;51788;45.124;38.966;2022-12-11T13:25:17;117.63;;;61.17;;
65202;SDS011;51788;45.124;38.966;2022-12-11T13:27:47;122.93;;;60.22;;
65202;SDS011;51788;45.124;38.966;2022-12-11T13:32:40;120.47;;;57.80;;
65202;SDS011;51788;45.124;38.966;2022-12-11T13:35:11;100.40;;;49.75;;
65202;SDS011;51788;45.124;38.966;2022-12-11T13:37:42;106.72;;;49.80;;
65202;SDS011;51788;45.124;38.966;2022-12-11T13:40:14;87.80;;;46.35;;
65202;SDS011;51788;45.124;38.966;2022-12-11T13:42:48;90.65;;;40.05;;
65202;SDS011;51788;45.124;38.966;2022-12-11T13:45:27;69.32;;;36.90;;
65202;SDS011;51788;45.124;38.966;2022-12-11T13:48:04;82.68;;;38.47;;
65202;SDS011;51788;45.124;38.966;2022-12-11T13:50:44;70.30;;;32.72;;
65202;SDS011;51788;45.124;38.966;2022-12-11T13:53:14;62.60;;;31.27;;
65202;SDS011;51788;45.124;38.966;2022-12-11T13:55:42;52.83;;;29.17;;
65202;SDS011;51788;45.124;38.966;2022-12-11T13:58:15;73.28;;;29.20;;
65202;SDS011;51788;45.124;38.966;2022-12-11T14:00:50;51.55;;;25.40;;
65202;SDS011;51788;45.124;38.966;2022-12-11T14:03:21;44.45;;;25.38;;
65202;SDS011;51788;45.124;38.966;2022-12-11T14:05:48;48.10;;;25.35;;
65202;SDS011;51788;45.124;38.966;2022-12-11T14:08:19;45.42;;;23.95;;
65202;SDS011;51788;45.124;38.966;2022-12-11T14:10:52;44.35;;;23.05;;
65202;SDS011;51788;45.124;38.966;2022-12-11T14:13:25;41.47;;;22.30;;
65202;SDS011;51788;45.124;38.966;2022-12-11T14:15:55;45.22;;;21.90;;
65202;SDS011;51788;45.124;38.966;2022-12-11T14:18:22;30.60;;;19.63;;
65202;SDS011;51788;45.124;38.966;2022-12-11T14:20:55;43.78;;;18.20;;
65202;SDS011;51788;45.124;38.966;2022-12-11T14:23:23;31.65;;;18.17;;
65202;SDS011;51788;45.124;38.966;2022-12-11T14:25:55;40.67;;;17.27;;
65202;SDS011;51788;45.124;38.966;2022-12-11T14:28:21;45.05;;;19.52;;
65202;SDS011;51788;45.124;38.966;2022-12-11T14:30:52;42.38;;;20.42;;
65202;SDS011;51788;45.124;38.966;2022-12-11T14:33:24;44.65;;;22.67;;
65202;SDS011;51788;45.124;38.966;2022-12-11T14:35:55;52.17;;;21.02;;
65202;SDS011;51788;45.124;38.966;2022-12-11T14:38:23;49.33;;;22.23;;
65202;SDS011;51788;45.124;38.966;2022-12-11T14:40:54;51.03;;;22.20;;
65202;SDS011;51788;45.124;38.966;2022-12-11T14:43:37;44.08;;;19.58;;
65202;SDS011;51788;45.124;38.966;2022-12-11T14:46:12;39.63;;;18.73;;
65202;SDS011;51788;45.124;38.966;2022-12-11T14:48:43;42.03;;;20.88;;
65202;SDS011;51788;45.124;38.966;2022-12-11T14:51:14;49.33;;;21.98;;
65202;SDS011;51788;45.124;38.966;2022-12-11T14:53:45;50.63;;;23.85;;
65202;SDS011;51788;45.124;38.966;2022-12-11T14:56:20;59.97;;;25.90;;
65202;SDS011;51788;45.124;38.966;2022-12-11T14:59:07;50.08;;;23.25;;
65202;SDS011;51788;45.124;38.966;2022-12-11T15:01:44;53.70;;;21.63;;
65202;SDS011;51788;45.124;38.966;2022-12-11T15:06:43;52.15;;;22.17;;
65202;SDS011;51788;45.124;38.966;2022-12-11T15:12:07;47.00;;;22.65;;
65202;SDS011;51788;45.124;38.966;2022-12-11T15:15:03;49.38;;;21.35;;
65202;SDS011;51788;45.124;38.966;2022-12-11T15:17:28;44.50;;;23.08;;
65202;SDS011;51788;45.124;38.966;2022-12-11T15:19:55;46.88;;;22.70;;
65202;SDS011;51788;45.124;38.966;2022-12-11T15:22:29;47.25;;;21.08;;
65202;SDS011;51788;45.124;38.966;2022-12-11T15:24:56;51.95;;;23.88;;
65202;SDS011;51788;45.124;38.966;2022-12-11T15:29:58;50.85;;;22.15;;
65202;SDS011;51788;45.124;38.966;2022-12-11T15:32:24;68.22;;;24.55;;
65202;SDS011;51788;45.124;38.966;2022-12-11T15:34:54;45.25;;;22.17;;
65202;SDS011;51788;45.124;38.966;2022-12-11T15:37:26;44.28;;;24.35;;
65202;SDS011;51788;45.124;38.966;2022-12-11T15:39:58;63.80;;;24.80;;
65202;SDS011;51788;45.124;38.966;2022-12-11T15:42:30;60.20;;;25.52;;
65202;SDS011;51788;45.124;38.966;2022-12-11T15:44:58;49.33;;;24.95;;
65202;SDS011;51788;45.124;38.966;2022-12-11T15:47:26;49.60;;;22.42;;
65202;SDS011;51788;45.124;38.966;2022-12-11T15:49:57;55.65;;;26.70;;
65202;SDS011;51788;45.124;38.966;2022-12-11T15:52:25;60.10;;;27.05;;
65202;SDS011;51788;45.124;38.966;2022-12-11T15:54:51;56.60;;;25.85;;
65202;SDS011;51788;45.124;38.966;2022-12-11T15:57:18;55.70;;;27.25;;
65202;SDS011;51788;45.124;38.966;2022-12-11T15:59:45;56.30;;;25.17;;
65202;SDS011;51788;45.124;38.966;2022-12-11T16:02:13;50.53;;;26.17;;
65202;SDS011;51788;45.124;38.966;2022-12-11T16:04:39;47.58;;;25.23;;
65202;SDS011;51788;45.124;38.966;2022-12-11T16:07:11;51.33;;;23.65;;
65202;SDS011;51788;45.124;38.966;2022-12-11T16:09:43;53.13;;;23.52;;
65202;SDS011;51788;45.124;38.966;2022-12-11T16:12:10;47.08;;;21.92;;
65202;SDS011;51788;45.124;38.966;2022-12-11T16:14:39;41.30;;;21.08;;
65202;SDS011;51788;45.124;38.966;2022-12-11T16:17:05;40.47;;;19.02;;
65202;SDS011;51788;45.124;38.966;2022-12-11T16:19:32;39.28;;;18.83;;
65202;SDS011;51788;45.124;38.966;2022-12-11T16:21:59;35.15;;;18.67;;